My Meet Scores
Kelsey Salerno, Farmington Valley Gymnastics and More - MyMeetScores.com
Top100 | Top Teams | Upcoming Meets | Completed Meets | Latest | Add Scores | Help| Support | Bookmark and Share

Kelsey Salerno, Farmington Valley Gymnastics and More
Personal Bests
LevelVault BarsBeamFloorAA
39.2008.950 9.4009.72536.650
49.0508.800 9.5509.65036.300
59.1508.325 8.9508.95034.225
3L9.1509.200 9.2009.65037.200
4L8.8008.100 9.5509.05035.500
XP9.0008.400 9.1259.45034.900
Meet Scores
Date Meet Team Session Level Division Vault Bars Beam Floor AA
2019-02-15 2019 Commonwealth Cup Invitational Meet Farmington Valley Gymnastics and More 2 XP Junior 8.600 32T 7.900 37T 8.750 29 8.850 25T 34.100 33T
2019-02-09 2/9-2/10 CT Inhouse Valentines Invitational Farmington Valley Gymnastics and More 4 XP Younger 8.400 9 7.125 9 9.050 1T 9.450 2T 34.025 5
2019-01-25 Kinetic Kids Invitational 2019 Farmington Valley Gymnastics and More 4 XP Jr A 9.000 1T 8.400 6 8.700 7 8.800 5T 34.900 5
2019-01-18 DGS Northeast Invite Farmington Valley Gymnastics and More 3B XP Jr B 8.300 10 8.000 5T 9.125 1 9.450 1 34.875 1T
2019-01-11 New Year's Invitational Farmington Valley Gymnastics and More 4 XP Jr A 8.475 11 8.250 8T 8.900 3 9.000 6T 34.625 8
2018-02-23 Pink Invitational ~ Gymnasts Unite American Gymnastics Training Center UA1 5 12 and Ove 0.000 17 8.325 14 8.950 8 8.950 10T 26.225 17
2018-02-03 Level 4 & 5 States American Gymnastics Training Center 6 5 12 A 9.150 14T 7.500 32T 8.400 30T 8.500 35T 33.550 29
2018-01-26 2018 American Invitational American Gymnastics Training Center 7A 5 Middle 9.050 7 7.875 7 8.450 4T 8.850 8 34.225 6
2018-01-12 DGS Invitational American Gymnastics Training Center 6A 5 12 yrs. 8.650 21T 7.625 17 8.600 2 8.150 10 33.025 10T
2017-02-24 Pink Invitational - Gymnasts Unite American Gymnastics Training Center FB2 4 11 yrs. 8.700 9 8.800 7 9.150 2T 9.650 1 36.300 3T
2017-02-04 2017 Connecticut Level 4 & 5 State Meets American Gymnastics Training Center 3 4 11 A 9.050 2 8.200 9 8.500 11 8.725 7* 34.475 7T
2017-01-27 24th Annual American Invitational American Gymnastics Training Center 5B 4 Senior 8.325 10 8.700 16 9.550 2 8.900 3 35.475 7
2017-01-13 20th Annual Star Struck Invitational American Gymnastics Training Center 7D 4L Sr B 8.800 7T 8.100 11 9.550 2 9.050 5T 35.500 5T
2016-12-02 Rhode Island Invitational American Gymnastics Training Center SF4 4 Junior 8.350 6 8.100 9 9.175 1 8.850 3 34.475 4
2016-11-18 2016 Muriel Grossfeld Invitational American Gymnastics Training Center 7 4 Sr A 8.750 3 8.000 15 7.775 19 8.650 6T 33.175 11
2016-02-26 Pink Invitational American Gymnastics Training Center FA4 3 10 yrs. 9.000 6T 8.525 12 8.900 8 9.725 1 36.150 8
2016-01-28 2016 American Invitational American Gymnastics Training Center 4A 3 Senior 8.650 19 8.950 10 9.400 6 9.650 1 36.650 7
2016-01-15 19th Annual Star Struck Invitational American Gymnastics Training Center 3A 3L Sr B 9.150 8 9.200 3T 9.200 2 9.650 1 37.200 2
2015-11-21 2015 Muriel Grossfeld Invitational American Gymnastics Training Center 7 3 Senior 9.200 1 8.900 2T 9.100 1 9.350 1 36.550 1
2014-12-12 Rhode Island Invitational American Gymnastics Training Center SF3 3 Intermed B 8.800 9T 7.950 9 8.000 12 8.850 2 33.600 10T
Get your scores on
a t-shirt, pin, or hoodie

www.lazysuits.com